Portland, Oregon
Traffic Map
Current Weather Conditions
Portland, Oregon
Overcast
Overcast
71°
Feels Like: 71°
Wind Chill: 71° Ceiling: 17000
Heat Index: 71° Visibility: 10mi
Dew Point: 53° Wind: 3mph
Humidity: 53% Direction: 270° (W)
Pressure: 30.01in Gusts: 0mph
Raw Report DataKPDX 280853Z 27003KT 10SM FEW080 OVC170 22/12 A3001 RMK AO2 SLP160 T02170117 53008
Traffic Incident Summary
Active as of:
Severity:
Category:
InformationThere was an issue retrieving the traffic information for this location. Please try a different location or try again shortly.
Advertisements
Track Severe Weather on mobile